This is the latest recevied weather packets stored in our database for station/object K8RLH. If no packets are shown the sender has not sent any weather packets the latest 10 day(s).
| Time | Temp. | Humidity | Pressure | Rain* | Wind** | Luminosity | Snow |
|---|---|---|---|---|---|---|---|
| 1777647659 | 15° C | 51% | 1017.2 hPa | 0 mm | - | 200 W/m² | - |
| 1777647354 | 15.56° C | 50% | 1017.1 hPa | 0 mm | - | 218 W/m² | - |
| 1777647053 | 15° C | 53% | 1017.1 hPa | 0 mm | - | 153 W/m² | - |
| 1777646749 | 15° C | 52% | 1016.9 hPa | 0 mm | - | 198 W/m² | - |
| 1777646444 | 15° C | 54% | 1016.9 hPa | 0 mm | - | 166 W/m² | - |
| 1777646141 | 14.44° C | 57% | 1017.2 hPa | 0 mm | - | 169 W/m² | - |
| 1777645838 | 14.44° C | 54% | 1017 hPa | 0 mm | - | 147 W/m² | - |
| 1777645535 | 14.44° C | 55% | 1017.2 hPa | 0 mm | - | 111 W/m² | - |
| 1777645231 | 14.44° C | 55% | 1017.2 hPa | 0 mm | - | 148 W/m² | - |
| 1777644927 | 14.44° C | 57% | 1017.1 hPa | 0 mm | - | 140 W/m² | - |
| 1777644625 | 13.89° C | 56% | 1017.2 hPa | 0 mm | - | 114 W/m² | - |
| 1777644321 | 13.89° C | 56% | 1017 hPa | 0 mm | - | 102 W/m² | - |
| 1777644017 | 13.89° C | 57% | 1017.1 hPa | 0 mm | - | 94 W/m² | - |
| 1777643714 | 13.89° C | 58% | 1017.1 hPa | 0 mm | - | 95 W/m² | - |
| 1777643412 | 13.89° C | 57% | 1017.2 hPa | 0 mm | - | 85 W/m² | - |
| 1777643108 | 13.89° C | 56% | 1017.1 hPa | 0 mm | - | 69 W/m² | - |
| 1777642805 | 13.89° C | 58% | 1017.1 hPa | 0 mm | - | 60 W/m² | - |
| 1777642501 | 13.89° C | 59% | 1017.3 hPa | 0 mm | - | 59 W/m² | - |
| 1777642197 | 13.89° C | 57% | 1017.1 hPa | 0 mm | - | 68 W/m² | - |
| 1777641896 | 13.89° C | 57% | 1017 hPa | 0 mm | - | 75 W/m² | - |
| 1777641595 | 14.44° C | 57% | 1017.1 hPa | 0 mm | - | 83 W/m² | - |
| 1777641295 | 14.44° C | 57% | 1017.1 hPa | 0 mm | - | 83 W/m² | - |
| 1777640992 | 14.44° C | 59% | 1017.2 hPa | 0 mm | - | 90 W/m² | - |
| 1777640688 | 13.89° C | 58% | 1016.8 hPa | 0 mm | - | 79 W/m² | - |
| 1777640385 | 13.89° C | 58% | 1017.1 hPa | 0 mm | - | 67 W/m² | - |
* Rain latest hour (hover to see other rain measurements)
** Current wind speed in m/s (hover to see current wind gust speed)